sensor_id;sensor_type;location;lat;lon;timestamp;P1;durP1;ratioP1;P2;durP2;ratioP2
24729;SDS011;12832;52.392;13.066;2023-02-22T00:00:29;1.02;;;0.80;;
24729;SDS011;12832;52.392;13.066;2023-02-22T00:03:09;0.63;;;0.63;;
24729;SDS011;12832;52.392;13.066;2023-02-22T00:05:56;0.88;;;0.70;;
24729;SDS011;12832;52.392;13.066;2023-02-22T00:08:25;1.15;;;0.70;;
24729;SDS011;12832;52.392;13.066;2023-02-22T00:10:58;1.02;;;0.77;;
24729;SDS011;12832;52.392;13.066;2023-02-22T00:13:25;1.05;;;0.80;;
24729;SDS011;12832;52.392;13.066;2023-02-22T00:15:56;1.15;;;0.70;;
24729;SDS011;12832;52.392;13.066;2023-02-22T00:18:24;1.52;;;0.98;;
24729;SDS011;12832;52.392;13.066;2023-02-22T00:20:56;0.80;;;0.80;;
24729;SDS011;12832;52.392;13.066;2023-02-22T00:23:27;1.15;;;0.77;;
24729;SDS011;12832;52.392;13.066;2023-02-22T00:25:55;1.05;;;0.70;;
24729;SDS011;12832;52.392;13.066;2023-02-22T00:28:22;1.25;;;0.90;;
24729;SDS011;12832;52.392;13.066;2023-02-22T00:30:48;1.10;;;0.75;;
24729;SDS011;12832;52.392;13.066;2023-02-22T00:33:15;0.63;;;0.63;;
24729;SDS011;12832;52.392;13.066;2023-02-22T00:35:42;1.02;;;0.85;;
24729;SDS011;12832;52.392;13.066;2023-02-22T00:38:13;1.17;;;0.95;;
24729;SDS011;12832;52.392;13.066;2023-02-22T00:40:40;1.42;;;0.90;;
24729;SDS011;12832;52.392;13.066;2023-02-22T00:43:06;1.85;;;0.95;;
24729;SDS011;12832;52.392;13.066;2023-02-22T00:45:33;1.20;;;1.00;;
24729;SDS011;12832;52.392;13.066;2023-02-22T00:48:00;1.20;;;0.65;;
24729;SDS011;12832;52.392;13.066;2023-02-22T00:50:28;0.82;;;0.65;;
24729;SDS011;12832;52.392;13.066;2023-02-22T00:52:56;0.75;;;0.60;;
24729;SDS011;12832;52.392;13.066;2023-02-22T00:55:25;1.05;;;0.73;;
24729;SDS011;12832;52.392;13.066;2023-02-22T00:57:55;0.73;;;0.73;;
24729;SDS011;12832;52.392;13.066;2023-02-22T01:02:50;1.63;;;0.90;;
24729;SDS011;12832;52.392;13.066;2023-02-22T01:05:19;1.10;;;0.85;;
24729;SDS011;12832;52.392;13.066;2023-02-22T01:07:47;1.20;;;0.80;;
24729;SDS011;12832;52.392;13.066;2023-02-22T01:10:14;1.42;;;0.90;;
24729;SDS011;12832;52.392;13.066;2023-02-22T01:12:42;1.63;;;0.95;;
24729;SDS011;12832;52.392;13.066;2023-02-22T01:15:09;1.45;;;0.98;;
24729;SDS011;12832;52.392;13.066;2023-02-22T01:17:36;1.00;;;0.80;;
24729;SDS011;12832;52.392;13.066;2023-02-22T01:20:05;1.00;;;0.80;;
24729;SDS011;12832;52.392;13.066;2023-02-22T01:22:35;1.50;;;0.85;;
24729;SDS011;12832;52.392;13.066;2023-02-22T01:25:04;1.05;;;0.82;;
24729;SDS011;12832;52.392;13.066;2023-02-22T01:27:32;1.02;;;0.90;;
24729;SDS011;12832;52.392;13.066;2023-02-22T01:29:59;1.00;;;0.90;;
24729;SDS011;12832;52.392;13.066;2023-02-22T01:32:26;1.55;;;0.90;;
24729;SDS011;12832;52.392;13.066;2023-02-22T01:34:52;1.10;;;0.70;;
24729;SDS011;12832;52.392;13.066;2023-02-22T01:37:18;1.75;;;1.08;;
24729;SDS011;12832;52.392;13.066;2023-02-22T01:39:45;1.05;;;0.80;;
24729;SDS011;12832;52.392;13.066;2023-02-22T01:42:11;1.50;;;0.82;;
24729;SDS011;12832;52.392;13.066;2023-02-22T01:44:38;0.80;;;0.80;;
24729;SDS011;12832;52.392;13.066;2023-02-22T01:47:06;2.83;;;1.05;;
24729;SDS011;12832;52.392;13.066;2023-02-22T01:49:40;1.27;;;0.80;;
24729;SDS011;12832;52.392;13.066;2023-02-22T01:52:10;1.77;;;1.02;;
24729;SDS011;12832;52.392;13.066;2023-02-22T01:54:46;1.48;;;0.88;;
24729;SDS011;12832;52.392;13.066;2023-02-22T01:57:34;0.88;;;0.80;;
24729;SDS011;12832;52.392;13.066;2023-02-22T02:00:06;1.02;;;0.70;;
24729;SDS011;12832;52.392;13.066;2023-02-22T02:02:35;1.95;;;1.10;;
24729;SDS011;12832;52.392;13.066;2023-02-22T02:05:05;1.40;;;1.10;;
24729;SDS011;12832;52.392;13.066;2023-02-22T02:07:33;1.27;;;0.98;;
24729;SDS011;12832;52.392;13.066;2023-02-22T02:10:04;1.77;;;1.05;;
24729;SDS011;12832;52.392;13.066;2023-02-22T02:12:39;1.67;;;1.08;;
24729;SDS011;12832;52.392;13.066;2023-02-22T02:15:18;1.25;;;1.00;;
24729;SDS011;12832;52.392;13.066;2023-02-22T02:17:49;0.85;;;0.82;;
24729;SDS011;12832;52.392;13.066;2023-02-22T02:21:03;1.08;;;0.73;;
24729;SDS011;12832;52.392;13.066;2023-02-22T02:23:44;1.23;;;0.90;;
24729;SDS011;12832;52.392;13.066;2023-02-22T02:37:31;1.02;;;0.90;;
24729;SDS011;12832;52.392;13.066;2023-02-22T02:40:19;1.20;;;0.70;;
24729;SDS011;12832;52.392;13.066;2023-02-22T02:42:54;2.30;;;0.95;;
24729;SDS011;12832;52.392;13.066;2023-02-22T02:45:39;1.27;;;0.90;;
24729;SDS011;12832;52.392;13.066;2023-02-22T02:48:15;0.90;;;0.80;;
24729;SDS011;12832;52.392;13.066;2023-02-22T02:50:48;1.80;;;1.10;;
24729;SDS011;12832;52.392;13.066;2023-02-22T02:53:17;1.58;;;1.13;;
24729;SDS011;12832;52.392;13.066;2023-02-22T02:56:04;0.85;;;0.77;;
24729;SDS011;12832;52.392;13.066;2023-02-22T02:58:30;1.23;;;0.85;;
24729;SDS011;12832;52.392;13.066;2023-02-22T03:00:57;1.30;;;0.80;;
24729;SDS011;12832;52.392;13.066;2023-02-22T03:09:16;1.15;;;0.90;;
24729;SDS011;12832;52.392;13.066;2023-02-22T03:14:41;1.00;;;0.70;;
24729;SDS011;12832;52.392;13.066;2023-02-22T03:17:22;1.20;;;0.90;;
24729;SDS011;12832;52.392;13.066;2023-02-22T03:20:12;1.50;;;0.90;;
24729;SDS011;12832;52.392;13.066;2023-02-22T03:25:51;1.00;;;0.90;;
24729;SDS011;12832;52.392;13.066;2023-02-22T03:28:22;1.13;;;0.88;;
24729;SDS011;12832;52.392;13.066;2023-02-22T03:30:58;1.50;;;0.90;;
24729;SDS011;12832;52.392;13.066;2023-02-22T03:33:56;1.65;;;0.90;;
24729;SDS011;12832;52.392;13.066;2023-02-22T03:36:32;1.67;;;1.17;;
24729;SDS011;12832;52.392;13.066;2023-02-22T03:39:04;0.68;;;0.47;;
24729;SDS011;12832;52.392;13.066;2023-02-22T03:41:34;1.15;;;0.90;;
24729;SDS011;12832;52.392;13.066;2023-02-22T03:44:04;1.33;;;0.95;;
24729;SDS011;12832;52.392;13.066;2023-02-22T03:46:40;1.50;;;0.80;;
24729;SDS011;12832;52.392;13.066;2023-02-22T03:51:54;1.25;;;0.90;;
24729;SDS011;12832;52.392;13.066;2023-02-22T03:54:21;1.00;;;0.70;;
24729;SDS011;12832;52.392;13.066;2023-02-22T03:56:52;0.90;;;0.80;;
24729;SDS011;12832;52.392;13.066;2023-02-22T03:59:21;1.08;;;0.95;;
24729;SDS011;12832;52.392;13.066;2023-02-22T04:01:53;1.67;;;1.00;;
24729;SDS011;12832;52.392;13.066;2023-02-22T04:04:26;1.17;;;0.98;;
24729;SDS011;12832;52.392;13.066;2023-02-22T04:06:53;1.65;;;0.95;;
24729;SDS011;12832;52.392;13.066;2023-02-22T04:09:19;1.58;;;1.05;;
24729;SDS011;12832;52.392;13.066;2023-02-22T04:11:45;1.27;;;0.93;;
24729;SDS011;12832;52.392;13.066;2023-02-22T04:14:11;1.20;;;0.70;;
24729;SDS011;12832;52.392;13.066;2023-02-22T04:16:38;1.48;;;0.80;;
24729;SDS011;12832;52.392;13.066;2023-02-22T04:19:04;0.90;;;0.70;;
24729;SDS011;12832;52.392;13.066;2023-02-22T04:21:31;1.10;;;0.80;;
24729;SDS011;12832;52.392;13.066;2023-02-22T04:23:57;1.55;;;1.00;;
24729;SDS011;12832;52.392;13.066;2023-02-22T04:26:23;0.75;;;0.75;;
24729;SDS011;12832;52.392;13.066;2023-02-22T04:28:50;2.15;;;0.93;;
24729;SDS011;12832;52.392;13.066;2023-02-22T04:31:16;1.55;;;0.88;;
24729;SDS011;12832;52.392;13.066;2023-02-22T04:33:43;0.90;;;0.77;;
24729;SDS011;12832;52.392;13.066;2023-02-22T04:36:09;0.95;;;0.80;;
24729;SDS011;12832;52.392;13.066;2023-02-22T04:38:35;0.93;;;0.85;;
24729;SDS011;12832;52.392;13.066;2023-02-22T04:41:01;1.67;;;1.05;;
24729;SDS011;12832;52.392;13.066;2023-02-22T04:43:27;1.17;;;0.80;;
24729;SDS011;12832;52.392;13.066;2023-02-22T04:45:53;0.93;;;0.73;;
24729;SDS011;12832;52.392;13.066;2023-02-22T04:48:20;0.95;;;0.80;;
24729;SDS011;12832;52.392;13.066;2023-02-22T04:50:46;1.05;;;0.80;;
24729;SDS011;12832;52.392;13.066;2023-02-22T04:53:12;1.33;;;1.00;;
24729;SDS011;12832;52.392;13.066;2023-02-22T04:55:38;1.13;;;0.80;;
24729;SDS011;12832;52.392;13.066;2023-02-22T04:58:04;1.23;;;0.90;;
24729;SDS011;12832;52.392;13.066;2023-02-22T05:00:30;1.02;;;0.73;;
24729;SDS011;12832;52.392;13.066;2023-02-22T05:02:56;1.33;;;0.77;;
24729;SDS011;12832;52.392;13.066;2023-02-22T05:05:22;1.15;;;0.85;;
24729;SDS011;12832;52.392;13.066;2023-02-22T05:07:49;0.82;;;0.60;;
24729;SDS011;12832;52.392;13.066;2023-02-22T05:10:15;1.00;;;0.85;;
24729;SDS011;12832;52.392;13.066;2023-02-22T05:12:41;0.65;;;0.50;;
24729;SDS011;12832;52.392;13.066;2023-02-22T05:15:08;1.20;;;0.80;;
24729;SDS011;12832;52.392;13.066;2023-02-22T05:17:35;0.68;;;0.50;;
24729;SDS011;12832;52.392;13.066;2023-02-22T05:20:02;1.17;;;0.70;;
24729;SDS011;12832;52.392;13.066;2023-02-22T05:22:29;1.33;;;0.88;;
24729;SDS011;12832;52.392;13.066;2023-02-22T05:24:55;0.85;;;0.73;;
24729;SDS011;12832;52.392;13.066;2023-02-22T05:27:21;1.30;;;0.73;;
24729;SDS011;12832;52.392;13.066;2023-02-22T05:29:47;0.90;;;0.70;;
24729;SDS011;12832;52.392;13.066;2023-02-22T05:32:13;0.95;;;0.63;;
24729;SDS011;12832;52.392;13.066;2023-02-22T05:34:39;0.80;;;0.68;;
24729;SDS011;12832;52.392;13.066;2023-02-22T05:37:06;0.93;;;0.73;;
24729;SDS011;12832;52.392;13.066;2023-02-22T05:39:32;1.27;;;0.60;;
24729;SDS011;12832;52.392;13.066;2023-02-22T05:41:58;0.80;;;0.50;;
24729;SDS011;12832;52.392;13.066;2023-02-22T05:44:24;0.70;;;0.60;;
24729;SDS011;12832;52.392;13.066;2023-02-22T05:46:51;1.20;;;0.70;;
24729;SDS011;12832;52.392;13.066;2023-02-22T05:49:17;0.73;;;0.65;;
24729;SDS011;12832;52.392;13.066;2023-02-22T05:51:43;0.70;;;0.52;;
24729;SDS011;12832;52.392;13.066;2023-02-22T05:54:09;0.55;;;0.47;;
24729;SDS011;12832;52.392;13.066;2023-02-22T05:56:35;1.23;;;0.80;;
24729;SDS011;12832;52.392;13.066;2023-02-22T05:59:02;0.60;;;0.50;;
24729;SDS011;12832;52.392;13.066;2023-02-22T06:01:28;0.65;;;0.55;;
24729;SDS011;12832;52.392;13.066;2023-02-22T06:03:54;0.68;;;0.60;;
24729;SDS011;12832;52.392;13.066;2023-02-22T06:06:20;2.10;;;0.90;;
24729;SDS011;12832;52.392;13.066;2023-02-22T06:08:47;1.88;;;0.90;;
24729;SDS011;12832;52.392;13.066;2023-02-22T06:11:13;1.33;;;1.00;;
24729;SDS011;12832;52.392;13.066;2023-02-22T06:13:40;1.77;;;1.05;;
24729;SDS011;12832;52.392;13.066;2023-02-22T06:16:06;1.85;;;0.77;;
24729;SDS011;12832;52.392;13.066;2023-02-22T06:18:32;1.25;;;0.80;;
24729;SDS011;12832;52.392;13.066;2023-02-22T06:20:59;1.23;;;0.70;;
24729;SDS011;12832;52.392;13.066;2023-02-22T06:23:25;0.95;;;0.55;;
24729;SDS011;12832;52.392;13.066;2023-02-22T06:25:52;1.02;;;0.70;;
24729;SDS011;12832;52.392;13.066;2023-02-22T06:28:18;2.00;;;0.85;;
24729;SDS011;12832;52.392;13.066;2023-02-22T06:30:44;1.17;;;0.75;;
24729;SDS011;12832;52.392;13.066;2023-02-22T06:33:10;0.80;;;0.60;;
24729;SDS011;12832;52.392;13.066;2023-02-22T06:35:37;0.82;;;0.60;;
24729;SDS011;12832;52.392;13.066;2023-02-22T06:38:04;2.00;;;0.80;;
24729;SDS011;12832;52.392;13.066;2023-02-22T06:40:30;1.33;;;0.50;;
24729;SDS011;12832;52.392;13.066;2023-02-22T06:42:56;1.30;;;0.50;;
24729;SDS011;12832;52.392;13.066;2023-02-22T06:45:22;1.05;;;0.80;;
24729;SDS011;12832;52.392;13.066;2023-02-22T06:47:49;2.30;;;0.88;;
24729;SDS011;12832;52.392;13.066;2023-02-22T06:50:24;2.22;;;1.00;;
24729;SDS011;12832;52.392;13.066;2023-02-22T06:52:53;1.88;;;1.20;;
24729;SDS011;12832;52.392;13.066;2023-02-22T06:55:21;1.88;;;1.00;;
24729;SDS011;12832;52.392;13.066;2023-02-22T06:57:49;1.83;;;1.35;;
24729;SDS011;12832;52.392;13.066;2023-02-22T07:00:17;1.95;;;1.10;;
24729;SDS011;12832;52.392;13.066;2023-02-22T07:02:45;2.35;;;1.10;;
24729;SDS011;12832;52.392;13.066;2023-02-22T07:05:16;3.78;;;1.60;;
24729;SDS011;12832;52.392;13.066;2023-02-22T07:07:44;2.92;;;1.20;;
24729;SDS011;12832;52.392;13.066;2023-02-22T07:10:15;2.40;;;1.40;;
24729;SDS011;12832;52.392;13.066;2023-02-22T07:12:42;2.63;;;1.63;;
24729;SDS011;12832;52.392;13.066;2023-02-22T07:15:08;3.08;;;1.23;;
24729;SDS011;12832;52.392;13.066;2023-02-22T07:17:34;3.67;;;1.50;;
24729;SDS011;12832;52.392;13.066;2023-02-22T07:20:00;2.05;;;1.50;;
24729;SDS011;12832;52.392;13.066;2023-02-22T07:22:27;2.65;;;1.35;;
24729;SDS011;12832;52.392;13.066;2023-02-22T07:24:55;2.92;;;1.20;;
24729;SDS011;12832;52.392;13.066;2023-02-22T07:27:21;2.13;;;1.33;;
24729;SDS011;12832;52.392;13.066;2023-02-22T07:29:47;1.98;;;1.20;;
24729;SDS011;12832;52.392;13.066;2023-02-22T07:32:14;1.30;;;1.10;;
24729;SDS011;12832;52.392;13.066;2023-02-22T07:34:40;2.45;;;1.20;;
24729;SDS011;12832;52.392;13.066;2023-02-22T07:37:07;2.58;;;1.23;;
24729;SDS011;12832;52.392;13.066;2023-02-22T07:39:33;2.78;;;1.55;;
24729;SDS011;12832;52.392;13.066;2023-02-22T07:42:02;3.00;;;1.58;;
24729;SDS011;12832;52.392;13.066;2023-02-22T07:44:28;1.70;;;1.20;;
24729;SDS011;12832;52.392;13.066;2023-02-22T07:46:54;2.80;;;1.30;;
24729;SDS011;12832;52.392;13.066;2023-02-22T07:49:20;3.63;;;1.40;;
24729;SDS011;12832;52.392;13.066;2023-02-22T07:51:46;3.05;;;1.55;;
24729;SDS011;12832;52.392;13.066;2023-02-22T07:54:12;3.95;;;1.50;;
24729;SDS011;12832;52.392;13.066;2023-02-22T07:56:46;1.65;;;0.80;;
24729;SDS011;12832;52.392;13.066;2023-02-22T07:59:13;3.22;;;1.60;;
24729;SDS011;12832;52.392;13.066;2023-02-22T08:01:40;2.70;;;1.23;;
24729;SDS011;12832;52.392;13.066;2023-02-22T08:04:06;3.10;;;1.45;;
24729;SDS011;12832;52.392;13.066;2023-02-22T08:06:32;3.90;;;1.27;;
24729;SDS011;12832;52.392;13.066;2023-02-22T08:08:59;2.47;;;1.33;;
24729;SDS011;12832;52.392;13.066;2023-02-22T08:11:25;4.00;;;1.75;;
24729;SDS011;12832;52.392;13.066;2023-02-22T08:13:51;4.75;;;1.85;;
24729;SDS011;12832;52.392;13.066;2023-02-22T08:16:17;4.95;;;1.77;;
24729;SDS011;12832;52.392;13.066;2023-02-22T08:18:43;3.85;;;1.77;;
24729;SDS011;12832;52.392;13.066;2023-02-22T08:21:09;5.90;;;2.53;;
24729;SDS011;12832;52.392;13.066;2023-02-22T08:23:35;6.50;;;2.60;;
24729;SDS011;12832;52.392;13.066;2023-02-22T08:26:07;7.65;;;2.45;;
24729;SDS011;12832;52.392;13.066;2023-02-22T08:28:35;5.72;;;2.85;;
24729;SDS011;12832;52.392;13.066;2023-02-22T08:31:03;5.40;;;2.30;;
24729;SDS011;12832;52.392;13.066;2023-02-22T08:33:32;6.68;;;2.65;;
24729;SDS011;12832;52.392;13.066;2023-02-22T08:35:59;6.55;;;3.05;;
24729;SDS011;12832;52.392;13.066;2023-02-22T08:38:27;6.45;;;2.70;;
24729;SDS011;12832;52.392;13.066;2023-02-22T08:40:55;4.97;;;2.30;;
24729;SDS011;12832;52.392;13.066;2023-02-22T08:43:21;6.10;;;2.17;;
24729;SDS011;12832;52.392;13.066;2023-02-22T08:45:48;6.40;;;2.75;;
24729;SDS011;12832;52.392;13.066;2023-02-22T08:48:16;6.60;;;2.80;;
24729;SDS011;12832;52.392;13.066;2023-02-22T08:50:43;6.25;;;2.60;;
24729;SDS011;12832;52.392;13.066;2023-02-22T08:53:09;7.25;;;2.50;;
24729;SDS011;12832;52.392;13.066;2023-02-22T08:55:38;3.83;;;1.88;;
24729;SDS011;12832;52.392;13.066;2023-02-22T08:58:06;4.90;;;2.00;;
24729;SDS011;12832;52.392;13.066;2023-02-22T09:00:33;5.28;;;2.22;;
24729;SDS011;12832;52.392;13.066;2023-02-22T09:03:01;4.03;;;1.92;;
24729;SDS011;12832;52.392;13.066;2023-02-22T09:05:28;5.03;;;2.10;;
24729;SDS011;12832;52.392;13.066;2023-02-22T09:07:56;3.47;;;1.77;;
24729;SDS011;12832;52.392;13.066;2023-02-22T09:10:24;3.55;;;1.80;;
24729;SDS011;12832;52.392;13.066;2023-02-22T09:12:53;4.93;;;2.00;;
24729;SDS011;12832;52.392;13.066;2023-02-22T09:15:20;4.93;;;2.20;;
24729;SDS011;12832;52.392;13.066;2023-02-22T09:17:47;3.20;;;1.83;;
24729;SDS011;12832;52.392;13.066;2023-02-22T09:20:13;4.00;;;1.67;;
24729;SDS011;12832;52.392;13.066;2023-02-22T09:22:43;2.97;;;1.73;;
24729;SDS011;12832;52.392;13.066;2023-02-22T09:25:11;4.18;;;1.77;;
24729;SDS011;12832;52.392;13.066;2023-02-22T09:27:42;4.10;;;1.95;;
24729;SDS011;12832;52.392;13.066;2023-02-22T09:30:14;4.28;;;2.03;;
24729;SDS011;12832;52.392;13.066;2023-02-22T09:32:49;4.82;;;2.05;;
24729;SDS011;12832;52.392;13.066;2023-02-22T09:35:20;4.63;;;2.00;;
24729;SDS011;12832;52.392;13.066;2023-02-22T09:38:00;2.97;;;1.60;;
24729;SDS011;12832;52.392;13.066;2023-02-22T09:40:29;4.43;;;1.75;;
24729;SDS011;12832;52.392;13.066;2023-02-22T09:45:44;3.40;;;1.73;;
24729;SDS011;12832;52.392;13.066;2023-02-22T09:48:31;4.13;;;1.70;;
24729;SDS011;12832;52.392;13.066;2023-02-22T09:51:01;4.28;;;1.85;;
24729;SDS011;12832;52.392;13.066;2023-02-22T09:53:35;4.05;;;1.88;;
24729;SDS011;12832;52.392;13.066;2023-02-22T09:56:16;4.30;;;2.35;;
24729;SDS011;12832;52.392;13.066;2023-02-22T09:58:45;3.55;;;1.80;;
24729;SDS011;12832;52.392;13.066;2023-02-22T10:04:04;6.65;;;2.13;;
24729;SDS011;12832;52.392;13.066;2023-02-22T10:06:35;3.42;;;1.50;;
24729;SDS011;12832;52.392;13.066;2023-02-22T10:09:03;3.85;;;1.83;;
24729;SDS011;12832;52.392;13.066;2023-02-22T10:14:44;2.90;;;1.60;;
24729;SDS011;12832;52.392;13.066;2023-02-22T10:17:34;2.70;;;1.73;;
24729;SDS011;12832;52.392;13.066;2023-02-22T10:20:15;3.53;;;1.90;;
24729;SDS011;12832;52.392;13.066;2023-02-22T10:22:58;3.55;;;1.70;;
24729;SDS011;12832;52.392;13.066;2023-02-22T10:25:35;5.93;;;2.15;;
24729;SDS011;12832;52.392;13.066;2023-02-22T10:28:25;3.45;;;1.80;;
24729;SDS011;12832;52.392;13.066;2023-02-22T10:30:57;3.85;;;1.98;;
24729;SDS011;12832;52.392;13.066;2023-02-22T10:33:29;3.42;;;1.63;;
24729;SDS011;12832;52.392;13.066;2023-02-22T10:36:01;3.85;;;2.00;;
24729;SDS011;12832;52.392;13.066;2023-02-22T10:38:31;4.50;;;2.13;;
24729;SDS011;12832;52.392;13.066;2023-02-22T10:43:42;3.88;;;1.77;;
24729;SDS011;12832;52.392;13.066;2023-02-22T10:46:10;3.72;;;1.90;;
24729;SDS011;12832;52.392;13.066;2023-02-22T10:48:42;4.43;;;1.83;;
24729;SDS011;12832;52.392;13.066;2023-02-22T10:51:11;5.18;;;2.25;;
24729;SDS011;12832;52.392;13.066;2023-02-22T10:53:38;4.32;;;1.85;;
24729;SDS011;12832;52.392;13.066;2023-02-22T10:56:08;2.95;;;1.70;;
24729;SDS011;12832;52.392;13.066;2023-02-22T10:58:48;3.90;;;1.88;;
24729;SDS011;12832;52.392;13.066;2023-02-22T11:01:35;3.95;;;1.98;;
24729;SDS011;12832;52.392;13.066;2023-02-22T11:06:45;3.55;;;1.90;;
24729;SDS011;12832;52.392;13.066;2023-02-22T11:09:17;3.38;;;1.90;;
24729;SDS011;12832;52.392;13.066;2023-02-22T11:11:47;4.07;;;1.67;;
24729;SDS011;12832;52.392;13.066;2023-02-22T11:14:24;4.70;;;1.50;;
24729;SDS011;12832;52.392;13.066;2023-02-22T11:16:53;3.78;;;1.83;;
24729;SDS011;12832;52.392;13.066;2023-02-22T11:19:22;4.22;;;1.67;;
24729;SDS011;12832;52.392;13.066;2023-02-22T11:21:52;3.63;;;2.00;;
24729;SDS011;12832;52.392;13.066;2023-02-22T11:24:21;3.33;;;1.50;;
24729;SDS011;12832;52.392;13.066;2023-02-22T11:26:50;3.22;;;1.70;;
24729;SDS011;12832;52.392;13.066;2023-02-22T11:29:23;3.08;;;1.58;;
24729;SDS011;12832;52.392;13.066;2023-02-22T11:31:50;3.30;;;1.67;;
24729;SDS011;12832;52.392;13.066;2023-02-22T11:34:30;3.78;;;1.58;;
24729;SDS011;12832;52.392;13.066;2023-02-22T11:39:47;2.75;;;1.60;;
24729;SDS011;12832;52.392;13.066;2023-02-22T11:42:28;3.33;;;1.50;;
24729;SDS011;12832;52.392;13.066;2023-02-22T11:45:08;4.10;;;2.00;;
24729;SDS011;12832;52.392;13.066;2023-02-22T11:47:35;3.13;;;1.33;;
24729;SDS011;12832;52.392;13.066;2023-02-22T11:50:17;5.13;;;1.60;;
24729;SDS011;12832;52.392;13.066;2023-02-22T11:52:49;3.65;;;1.75;;
24729;SDS011;12832;52.392;13.066;2023-02-22T11:55:40;3.63;;;1.73;;
24729;SDS011;12832;52.392;13.066;2023-02-22T12:04:14;4.22;;;1.58;;
24729;SDS011;12832;52.392;13.066;2023-02-22T12:06:50;2.75;;;1.60;;
24729;SDS011;12832;52.392;13.066;2023-02-22T12:12:42;2.67;;;1.50;;
24729;SDS011;12832;52.392;13.066;2023-02-22T12:15:32;3.60;;;1.55;;
24729;SDS011;12832;52.392;13.066;2023-02-22T12:20:38;3.90;;;1.63;;
24729;SDS011;12832;52.392;13.066;2023-02-22T12:23:17;3.88;;;1.83;;
24729;SDS011;12832;52.392;13.066;2023-02-22T12:26:09;3.97;;;1.75;;
24729;SDS011;12832;52.392;13.066;2023-02-22T12:28:53;3.55;;;1.50;;
24729;SDS011;12832;52.392;13.066;2023-02-22T12:36:40;3.45;;;1.77;;
24729;SDS011;12832;52.392;13.066;2023-02-22T12:39:26;3.90;;;1.88;;
24729;SDS011;12832;52.392;13.066;2023-02-22T12:42:20;4.40;;;2.08;;
24729;SDS011;12832;52.392;13.066;2023-02-22T12:45:02;4.45;;;1.90;;
24729;SDS011;12832;52.392;13.066;2023-02-22T12:47:38;4.25;;;2.05;;
24729;SDS011;12832;52.392;13.066;2023-02-22T12:50:16;3.00;;;1.60;;
24729;SDS011;12832;52.392;13.066;2023-02-22T12:52:49;3.40;;;1.85;;
24729;SDS011;12832;52.392;13.066;2023-02-22T12:55:23;4.47;;;1.83;;
24729;SDS011;12832;52.392;13.066;2023-02-22T13:05:20;3.78;;;1.95;;
24729;SDS011;12832;52.392;13.066;2023-02-22T13:13:31;5.22;;;2.38;;
24729;SDS011;12832;52.392;13.066;2023-02-22T13:19:02;5.18;;;2.08;;
24729;SDS011;12832;52.392;13.066;2023-02-22T13:21:56;4.40;;;1.95;;
24729;SDS011;12832;52.392;13.066;2023-02-22T13:27:49;4.68;;;2.20;;
24729;SDS011;12832;52.392;13.066;2023-02-22T13:30:37;4.75;;;1.80;;
24729;SDS011;12832;52.392;13.066;2023-02-22T13:44:29;3.63;;;1.75;;
24729;SDS011;12832;52.392;13.066;2023-02-22T13:53:15;3.80;;;1.95;;
24729;SDS011;12832;52.392;13.066;2023-02-22T13:55:51;4.30;;;1.90;;
24729;SDS011;12832;52.392;13.066;2023-02-22T13:58:21;3.28;;;1.50;;
24729;SDS011;12832;52.392;13.066;2023-02-22T14:00:49;3.25;;;1.60;;
24729;SDS011;12832;52.392;13.066;2023-02-22T14:03:30;2.55;;;1.58;;
24729;SDS011;12832;52.392;13.066;2023-02-22T14:06:04;4.18;;;1.95;;
24729;SDS011;12832;52.392;13.066;2023-02-22T14:09:07;3.55;;;1.85;;
24729;SDS011;12832;52.392;13.066;2023-02-22T14:14:08;3.08;;;1.50;;
24729;SDS011;12832;52.392;13.066;2023-02-22T14:16:35;4.35;;;1.83;;
24729;SDS011;12832;52.392;13.066;2023-02-22T14:19:03;3.67;;;1.60;;
24729;SDS011;12832;52.392;13.066;2023-02-22T14:21:57;2.70;;;1.38;;
24729;SDS011;12832;52.392;13.066;2023-02-22T14:24:27;3.05;;;1.65;;
24729;SDS011;12832;52.392;13.066;2023-02-22T14:26:59;3.40;;;1.73;;
24729;SDS011;12832;52.392;13.066;2023-02-22T14:29:28;2.75;;;1.58;;
24729;SDS011;12832;52.392;13.066;2023-02-22T14:31:58;3.53;;;1.67;;
24729;SDS011;12832;52.392;13.066;2023-02-22T14:37:35;3.05;;;1.40;;
24729;SDS011;12832;52.392;13.066;2023-02-22T14:40:22;2.88;;;1.60;;
24729;SDS011;12832;52.392;13.066;2023-02-22T14:43:24;3.55;;;1.55;;
24729;SDS011;12832;52.392;13.066;2023-02-22T14:45:55;2.20;;;1.33;;
24729;SDS011;12832;52.392;13.066;2023-02-22T14:48:34;3.53;;;1.63;;
24729;SDS011;12832;52.392;13.066;2023-02-22T14:51:16;3.33;;;1.20;;
24729;SDS011;12832;52.392;13.066;2023-02-22T14:53:53;3.08;;;1.52;;
24729;SDS011;12832;52.392;13.066;2023-02-22T14:57:08;2.45;;;1.35;;
24729;SDS011;12832;52.392;13.066;2023-02-22T14:59:44;2.72;;;1.45;;
24729;SDS011;12832;52.392;13.066;2023-02-22T15:02:17;3.53;;;1.92;;
24729;SDS011;12832;52.392;13.066;2023-02-22T15:04:54;3.17;;;1.50;;
24729;SDS011;12832;52.392;13.066;2023-02-22T15:07:26;3.65;;;1.30;;
24729;SDS011;12832;52.392;13.066;2023-02-22T15:10:05;4.35;;;1.70;;
24729;SDS011;12832;52.392;13.066;2023-02-22T15:12:46;3.45;;;1.58;;
24729;SDS011;12832;52.392;13.066;2023-02-22T15:15:37;2.88;;;1.63;;
24729;SDS011;12832;52.392;13.066;2023-02-22T15:18:22;3.60;;;1.55;;
24729;SDS011;12832;52.392;13.066;2023-02-22T15:21:01;3.35;;;1.73;;
24729;SDS011;12832;52.392;13.066;2023-02-22T15:23:40;2.75;;;1.50;;
24729;SDS011;12832;52.392;13.066;2023-02-22T15:26:06;3.97;;;1.52;;
24729;SDS011;12832;52.392;13.066;2023-02-22T15:28:41;3.85;;;1.60;;
24729;SDS011;12832;52.392;13.066;2023-02-22T15:31:20;4.28;;;1.52;;
24729;SDS011;12832;52.392;13.066;2023-02-22T15:33:50;3.50;;;1.55;;
24729;SDS011;12832;52.392;13.066;2023-02-22T15:36:17;1.92;;;1.42;;
24729;SDS011;12832;52.392;13.066;2023-02-22T15:38:48;3.55;;;1.58;;
24729;SDS011;12832;52.392;13.066;2023-02-22T15:41:20;3.65;;;1.70;;
24729;SDS011;12832;52.392;13.066;2023-02-22T15:44:03;2.95;;;1.45;;
24729;SDS011;12832;52.392;13.066;2023-02-22T15:46:47;5.05;;;1.60;;
24729;SDS011;12832;52.392;13.066;2023-02-22T15:51:40;3.67;;;1.95;;
24729;SDS011;12832;52.392;13.066;2023-02-22T15:54:11;3.22;;;1.60;;
24729;SDS011;12832;52.392;13.066;2023-02-22T15:56:52;3.53;;;1.75;;
24729;SDS011;12832;52.392;13.066;2023-02-22T15:59:22;2.47;;;1.30;;
24729;SDS011;12832;52.392;13.066;2023-02-22T16:01:54;3.22;;;1.50;;
24729;SDS011;12832;52.392;13.066;2023-02-22T16:04:25;4.00;;;1.85;;
24729;SDS011;12832;52.392;13.066;2023-02-22T16:07:01;3.40;;;1.48;;
24729;SDS011;12832;52.392;13.066;2023-02-22T16:09:32;1.42;;;1.20;;
24729;SDS011;12832;52.392;13.066;2023-02-22T16:12:06;2.92;;;1.40;;
24729;SDS011;12832;52.392;13.066;2023-02-22T16:20:00;2.13;;;1.20;;
24729;SDS011;12832;52.392;13.066;2023-02-22T16:22:46;2.60;;;1.20;;
24729;SDS011;12832;52.392;13.066;2023-02-22T16:27:48;1.30;;;0.80;;
24729;SDS011;12832;52.392;13.066;2023-02-22T16:32:52;1.30;;;0.90;;
24729;SDS011;12832;52.392;13.066;2023-02-22T16:35:20;1.38;;;0.70;;
24729;SDS011;12832;52.392;13.066;2023-02-22T16:37:47;1.55;;;0.80;;
24729;SDS011;12832;52.392;13.066;2023-02-22T16:40:22;2.13;;;0.90;;
24729;SDS011;12832;52.392;13.066;2023-02-22T16:42:57;1.42;;;0.80;;
24729;SDS011;12832;52.392;13.066;2023-02-22T16:45:28;1.20;;;0.80;;
24729;SDS011;12832;52.392;13.066;2023-02-22T16:47:54;1.20;;;0.90;;
24729;SDS011;12832;52.392;13.066;2023-02-22T16:50:20;2.17;;;0.98;;
24729;SDS011;12832;52.392;13.066;2023-02-22T16:52:48;0.70;;;0.55;;
24729;SDS011;12832;52.392;13.066;2023-02-22T16:55:18;0.90;;;0.65;;